sensor_id;sensor_type;location;lat;lon;timestamp;pressure;altitude;pressure_sealevel;temperature;humidity
68822;BME280;55834;50.870;4.606;2023-04-03T00:00:54;102201.63;;;-0.27;64.01
68822;BME280;55834;50.870;4.606;2023-04-03T00:03:19;102194.09;;;0.48;63.14
68822;BME280;55834;50.870;4.606;2023-04-03T00:05:46;102201.53;;;-0.51;64.72
68822;BME280;55834;50.870;4.606;2023-04-03T00:08:11;102195.19;;;-0.14;63.64
68822;BME280;55834;50.870;4.606;2023-04-03T00:10:37;102192.44;;;-0.19;63.39
68822;BME280;55834;50.870;4.606;2023-04-03T00:13:04;102210.09;;;-0.31;63.36
68822;BME280;55834;50.870;4.606;2023-04-03T00:15:30;102198.22;;;0.67;60.95
68822;BME280;55834;50.870;4.606;2023-04-03T00:17:55;102198.84;;;-0.09;62.53
68822;BME280;55834;50.870;4.606;2023-04-03T00:20:21;102196.88;;;-0.16;63.35
68822;BME280;55834;50.870;4.606;2023-04-03T00:22:46;102198.94;;;-0.08;63.02
68822;BME280;55834;50.870;4.606;2023-04-03T00:25:12;102202.91;;;-0.38;63.60
68822;BME280;55834;50.870;4.606;2023-04-03T00:27:38;102203.88;;;0.09;61.87
68822;BME280;55834;50.870;4.606;2023-04-03T00:30:05;102201.66;;;0.66;59.75
68822;BME280;55834;50.870;4.606;2023-04-03T00:32:32;102201.34;;;0.10;61.39
68822;BME280;55834;50.870;4.606;2023-04-03T00:34:57;102199.44;;;0.29;60.81
68822;BME280;55834;50.870;4.606;2023-04-03T00:37:23;102206.13;;;0.22;61.22
68822;BME280;55834;50.870;4.606;2023-04-03T00:39:48;102199.63;;;0.33;60.62
68822;BME280;55834;50.870;4.606;2023-04-03T00:42:14;102206.34;;;0.28;61.05
68822;BME280;55834;50.870;4.606;2023-04-03T00:47:07;102197.16;;;0.38;59.41
68822;BME280;55834;50.870;4.606;2023-04-03T00:49:34;102198.78;;;0.58;58.99
68822;BME280;55834;50.870;4.606;2023-04-03T00:52:00;102212.13;;;-0.24;61.23
68822;BME280;55834;50.870;4.606;2023-04-03T00:54:26;102193.06;;;0.20;61.29
68822;BME280;55834;50.870;4.606;2023-04-03T00:56:53;102193.53;;;0.33;60.55
68822;BME280;55834;50.870;4.606;2023-04-03T00:59:27;102197.38;;;-0.25;61.83
68822;BME280;55834;50.870;4.606;2023-04-03T01:01:55;102202.06;;;-0.37;62.59
68822;BME280;55834;50.870;4.606;2023-04-03T01:04:38;102197.03;;;-0.55;62.62
68822;BME280;55834;50.870;4.606;2023-04-03T01:07:07;102202.72;;;-0.85;63.16
68822;BME280;55834;50.870;4.606;2023-04-03T01:09:34;102202.34;;;-0.09;62.67
68822;BME280;55834;50.870;4.606;2023-04-03T01:12:26;102198.16;;;-0.28;61.95
68822;BME280;55834;50.870;4.606;2023-04-03T01:14:54;102199.09;;;-0.03;60.84
68822;BME280;55834;50.870;4.606;2023-04-03T01:17:30;102199.06;;;-1.09;64.49
68822;BME280;55834;50.870;4.606;2023-04-03T01:25:50;102217.19;;;-0.90;63.52
68822;BME280;55834;50.870;4.606;2023-04-03T01:28:24;102198.72;;;0.33;61.01
68822;BME280;55834;50.870;4.606;2023-04-03T01:30:51;102210.19;;;-0.07;60.09
68822;BME280;55834;50.870;4.606;2023-04-03T01:33:19;102217.41;;;-0.44;62.24
68822;BME280;55834;50.870;4.606;2023-04-03T01:35:45;102213.16;;;-0.41;61.84
68822;BME280;55834;50.870;4.606;2023-04-03T01:38:10;102217.88;;;-0.31;61.40
68822;BME280;55834;50.870;4.606;2023-04-03T01:40:36;102207.34;;;0.09;60.35
68822;BME280;55834;50.870;4.606;2023-04-03T01:43:01;102210.56;;;0.73;58.41
68822;BME280;55834;50.870;4.606;2023-04-03T01:45:27;102211.31;;;0.70;57.37
68822;BME280;55834;50.870;4.606;2023-04-03T01:47:52;102216.41;;;0.67;57.52
68822;BME280;55834;50.870;4.606;2023-04-03T01:50:17;102216.41;;;0.67;58.44
68822;BME280;55834;50.870;4.606;2023-04-03T01:52:43;102220.06;;;0.24;58.78
68822;BME280;55834;50.870;4.606;2023-04-03T01:55:08;102221.38;;;-0.08;59.79
68822;BME280;55834;50.870;4.606;2023-04-03T01:57:34;102221.38;;;0.83;56.34
68822;BME280;55834;50.870;4.606;2023-04-03T01:59:59;102218.88;;;0.62;57.39
68822;BME280;55834;50.870;4.606;2023-04-03T02:02:25;102220.19;;;0.51;58.11
68822;BME280;55834;50.870;4.606;2023-04-03T02:04:50;102221.63;;;0.67;58.88
68822;BME280;55834;50.870;4.606;2023-04-03T02:07:16;102223.66;;;0.05;59.66
68822;BME280;55834;50.870;4.606;2023-04-03T02:09:41;102231.53;;;-0.14;60.50
68822;BME280;55834;50.870;4.606;2023-04-03T02:12:06;102228.78;;;-0.82;61.80
68822;BME280;55834;50.870;4.606;2023-04-03T02:14:32;102221.09;;;0.29;59.16
68822;BME280;55834;50.870;4.606;2023-04-03T02:16:57;102227.34;;;0.81;57.42
68822;BME280;55834;50.870;4.606;2023-04-03T02:19:23;102222.50;;;0.43;58.96
68822;BME280;55834;50.870;4.606;2023-04-03T02:21:48;102223.63;;;0.98;56.55
68822;BME280;55834;50.870;4.606;2023-04-03T02:24:13;102227.69;;;0.43;57.37
68822;BME280;55834;50.870;4.606;2023-04-03T02:26:39;102238.00;;;-0.26;59.62
68822;BME280;55834;50.870;4.606;2023-04-03T02:29:04;102233.03;;;0.71;58.53
68822;BME280;55834;50.870;4.606;2023-04-03T02:31:30;102234.91;;;1.50;56.97
68822;BME280;55834;50.870;4.606;2023-04-03T02:33:55;102232.72;;;1.36;54.78
68822;BME280;55834;50.870;4.606;2023-04-03T02:36:20;102236.34;;;1.40;56.18
68822;BME280;55834;50.870;4.606;2023-04-03T02:38:46;102235.59;;;0.93;55.82
68822;BME280;55834;50.870;4.606;2023-04-03T02:41:12;102236.59;;;1.48;56.51
68822;BME280;55834;50.870;4.606;2023-04-03T02:43:38;102235.97;;;1.29;55.65
68822;BME280;55834;50.870;4.606;2023-04-03T02:46:04;102238.75;;;0.84;56.15
68822;BME280;55834;50.870;4.606;2023-04-03T02:48:31;102233.84;;;0.69;56.99
68822;BME280;55834;50.870;4.606;2023-04-03T02:50:57;102228.38;;;0.62;56.82
68822;BME280;55834;50.870;4.606;2023-04-03T02:53:22;102236.25;;;0.87;56.72
68822;BME280;55834;50.870;4.606;2023-04-03T02:55:48;102234.78;;;0.48;57.37
68822;BME280;55834;50.870;4.606;2023-04-03T02:58:13;102238.59;;;0.57;56.60
68822;BME280;55834;50.870;4.606;2023-04-03T03:00:39;102236.34;;;0.66;56.64
68822;BME280;55834;50.870;4.606;2023-04-03T03:03:05;102240.66;;;0.42;56.35
68822;BME280;55834;50.870;4.606;2023-04-03T03:05:31;102248.13;;;0.79;55.83
68822;BME280;55834;50.870;4.606;2023-04-03T03:07:57;102247.34;;;0.82;55.08
68822;BME280;55834;50.870;4.606;2023-04-03T03:10:22;102245.88;;;1.40;54.33
68822;BME280;55834;50.870;4.606;2023-04-03T03:12:48;102245.78;;;1.11;54.57
68822;BME280;55834;50.870;4.606;2023-04-03T03:15:14;102240.47;;;1.08;54.71
68822;BME280;55834;50.870;4.606;2023-04-03T03:17:41;102237.63;;;0.09;57.17
68822;BME280;55834;50.870;4.606;2023-04-03T03:20:07;102243.47;;;0.48;57.71
68822;BME280;55834;50.870;4.606;2023-04-03T03:22:34;102247.78;;;0.25;56.90
68822;BME280;55834;50.870;4.606;2023-04-03T03:25:00;102252.28;;;0.07;58.59
68822;BME280;55834;50.870;4.606;2023-04-03T03:27:26;102254.59;;;-0.43;59.66
68822;BME280;55834;50.870;4.606;2023-04-03T03:29:52;102249.75;;;0.31;58.67
68822;BME280;55834;50.870;4.606;2023-04-03T03:32:17;102245.31;;;0.28;58.04
68822;BME280;55834;50.870;4.606;2023-04-03T03:34:42;102249.03;;;0.35;56.66
68822;BME280;55834;50.870;4.606;2023-04-03T03:37:08;102243.31;;;0.67;56.75
68822;BME280;55834;50.870;4.606;2023-04-03T03:39:33;102252.09;;;0.24;56.99
68822;BME280;55834;50.870;4.606;2023-04-03T03:41:58;102263.47;;;-0.99;61.39
68822;BME280;55834;50.870;4.606;2023-04-03T03:44:24;102269.28;;;-1.05;62.24
68822;BME280;55834;50.870;4.606;2023-04-03T03:46:49;102262.81;;;-0.11;59.78
68822;BME280;55834;50.870;4.606;2023-04-03T03:49:15;102264.00;;;-0.03;59.75
68822;BME280;55834;50.870;4.606;2023-04-03T03:51:40;102263.44;;;-0.17;59.45
68822;BME280;55834;50.870;4.606;2023-04-03T03:54:06;102272.16;;;-0.78;61.91
68822;BME280;55834;50.870;4.606;2023-04-03T03:56:32;102268.16;;;0.14;59.44
68822;BME280;55834;50.870;4.606;2023-04-03T03:58:59;102261.50;;;0.21;58.61
68822;BME280;55834;50.870;4.606;2023-04-03T04:01:24;102263.97;;;-0.26;59.35
68822;BME280;55834;50.870;4.606;2023-04-03T04:03:50;102263.88;;;-0.06;59.29
68822;BME280;55834;50.870;4.606;2023-04-03T04:06:16;102264.66;;;-1.31;61.80
68822;BME280;55834;50.870;4.606;2023-04-03T04:08:41;102273.84;;;-0.59;60.32
68822;BME280;55834;50.870;4.606;2023-04-03T04:11:07;102272.38;;;-0.73;62.02
68822;BME280;55834;50.870;4.606;2023-04-03T04:13:33;102277.06;;;-1.24;62.88
68822;BME280;55834;50.870;4.606;2023-04-03T04:15:58;102279.53;;;-0.47;59.96
68822;BME280;55834;50.870;4.606;2023-04-03T04:18:24;102277.28;;;-1.00;62.01
68822;BME280;55834;50.870;4.606;2023-04-03T04:20:49;102281.44;;;-0.63;61.26
68822;BME280;55834;50.870;4.606;2023-04-03T04:23:16;102283.91;;;-0.67;61.03
68822;BME280;55834;50.870;4.606;2023-04-03T04:25:44;102285.09;;;-0.79;61.80
68822;BME280;55834;50.870;4.606;2023-04-03T04:28:10;102287.16;;;-0.51;60.76
68822;BME280;55834;50.870;4.606;2023-04-03T04:30:35;102289.09;;;-1.44;63.80
68822;BME280;55834;50.870;4.606;2023-04-03T04:33:01;102281.03;;;-0.73;62.07
68822;BME280;55834;50.870;4.606;2023-04-03T04:35:26;102281.00;;;-0.53;59.91
68822;BME280;55834;50.870;4.606;2023-04-03T04:37:51;102285.38;;;-1.31;62.89
68822;BME280;55834;50.870;4.606;2023-04-03T04:40:17;102286.00;;;-1.18;63.36
68822;BME280;55834;50.870;4.606;2023-04-03T04:42:42;102286.97;;;-0.75;62.06
68822;BME280;55834;50.870;4.606;2023-04-03T04:45:08;102288.41;;;-0.62;60.97
68822;BME280;55834;50.870;4.606;2023-04-03T04:47:33;102292.31;;;-1.30;63.92
68822;BME280;55834;50.870;4.606;2023-04-03T04:49:59;102283.22;;;-0.62;62.88
68822;BME280;55834;50.870;4.606;2023-04-03T04:52:24;102287.91;;;-1.14;62.23
68822;BME280;55834;50.870;4.606;2023-04-03T04:54:50;102282.13;;;-0.47;62.02
68822;BME280;55834;50.870;4.606;2023-04-03T04:57:15;102283.72;;;-0.50;60.76
68822;BME280;55834;50.870;4.606;2023-04-03T04:59:40;102289.75;;;-1.11;62.67
68822;BME280;55834;50.870;4.606;2023-04-03T05:02:06;102283.00;;;-0.88;61.79
68822;BME280;55834;50.870;4.606;2023-04-03T05:04:31;102285.56;;;-0.69;61.53
68822;BME280;55834;50.870;4.606;2023-04-03T05:06:56;102287.19;;;-0.50;59.76
68822;BME280;55834;50.870;4.606;2023-04-03T05:09:22;102277.25;;;0.48;59.75
68822;BME280;55834;50.870;4.606;2023-04-03T05:11:47;102279.56;;;0.87;57.48
68822;BME280;55834;50.870;4.606;2023-04-03T05:14:12;102283.78;;;1.07;56.72
68822;BME280;55834;50.870;4.606;2023-04-03T05:16:38;102284.53;;;1.05;55.27
68822;BME280;55834;50.870;4.606;2023-04-03T05:19:04;102290.44;;;0.99;55.29
68822;BME280;55834;50.870;4.606;2023-04-03T05:21:29;102290.75;;;0.17;56.18
68822;BME280;55834;50.870;4.606;2023-04-03T05:23:58;102277.28;;;0.96;56.16
68822;BME280;55834;50.870;4.606;2023-04-03T05:26:34;102276.28;;;0.91;54.99
68822;BME280;55834;50.870;4.606;2023-04-03T05:29:00;102282.09;;;0.39;55.84
68822;BME280;55834;50.870;4.606;2023-04-03T05:31:26;102278.16;;;-0.59;59.76
68822;BME280;55834;50.870;4.606;2023-04-03T05:33:54;102286.13;;;-0.55;59.17
68822;BME280;55834;50.870;4.606;2023-04-03T05:36:20;102284.84;;;-0.02;59.07
68822;BME280;55834;50.870;4.606;2023-04-03T05:38:46;102290.97;;;-0.22;58.94
68822;BME280;55834;50.870;4.606;2023-04-03T05:41:12;102290.19;;;-0.19;59.42
68822;BME280;55834;50.870;4.606;2023-04-03T05:43:37;102293.34;;;0.17;57.41
68822;BME280;55834;50.870;4.606;2023-04-03T05:46:09;102298.75;;;-1.03;60.51
68822;BME280;55834;50.870;4.606;2023-04-03T05:48:34;102299.97;;;0.09;59.14
68822;BME280;55834;50.870;4.606;2023-04-03T05:51:00;102298.41;;;-0.51;58.70
68822;BME280;55834;50.870;4.606;2023-04-03T05:53:28;102298.22;;;0.30;58.53
68822;BME280;55834;50.870;4.606;2023-04-03T05:55:54;102304.34;;;0.10;58.04
68822;BME280;55834;50.870;4.606;2023-04-03T05:58:20;102298.91;;;0.04;59.16
68822;BME280;55834;50.870;4.606;2023-04-03T06:00:45;102306.22;;;0.14;58.65
68822;BME280;55834;50.870;4.606;2023-04-03T06:03:11;102302.63;;;-0.74;60.72
68822;BME280;55834;50.870;4.606;2023-04-03T06:05:37;102300.91;;;-0.73;60.68
68822;BME280;55834;50.870;4.606;2023-04-03T06:08:02;102304.38;;;-0.73;61.20
68822;BME280;55834;50.870;4.606;2023-04-03T06:10:28;102295.50;;;-0.78;62.54
68822;BME280;55834;50.870;4.606;2023-04-03T06:12:53;102285.69;;;-0.24;61.09
68822;BME280;55834;50.870;4.606;2023-04-03T06:15:21;102307.34;;;-1.04;62.12
68822;BME280;55834;50.870;4.606;2023-04-03T06:17:47;102303.13;;;-0.61;62.38
68822;BME280;55834;50.870;4.606;2023-04-03T06:20:12;102298.88;;;0.24;59.63
68822;BME280;55834;50.870;4.606;2023-04-03T06:22:38;102310.81;;;-0.44;60.37
68822;BME280;55834;50.870;4.606;2023-04-03T06:25:04;102304.22;;;0.29;59.87
68822;BME280;55834;50.870;4.606;2023-04-03T06:27:30;102300.22;;;0.82;58.19
68822;BME280;55834;50.870;4.606;2023-04-03T06:29:55;102298.34;;;0.33;60.38
68822;BME280;55834;50.870;4.606;2023-04-03T06:32:21;102307.91;;;0.79;57.76
68822;BME280;55834;50.870;4.606;2023-04-03T06:34:46;102313.88;;;1.50;55.86
68822;BME280;55834;50.870;4.606;2023-04-03T06:37:20;102312.97;;;2.01;54.83
68822;BME280;55834;50.870;4.606;2023-04-03T06:39:46;102313.38;;;1.61;55.01
68822;BME280;55834;50.870;4.606;2023-04-03T06:42:12;102318.25;;;2.31;54.64
68822;BME280;55834;50.870;4.606;2023-04-03T06:44:38;102313.97;;;2.92;54.29
68822;BME280;55834;50.870;4.606;2023-04-03T06:47:03;102315.03;;;2.68;53.16
68822;BME280;55834;50.870;4.606;2023-04-03T06:49:29;102317.28;;;3.16;52.02
68822;BME280;55834;50.870;4.606;2023-04-03T06:51:55;102320.06;;;2.91;51.77
68822;BME280;55834;50.870;4.606;2023-04-03T06:54:21;102332.69;;;1.93;52.92
68822;BME280;55834;50.870;4.606;2023-04-03T06:56:47;102334.09;;;1.83;53.29
68822;BME280;55834;50.870;4.606;2023-04-03T06:59:13;102330.91;;;2.19;54.56
68822;BME280;55834;50.870;4.606;2023-04-03T07:01:39;102329.75;;;2.38;53.16
68822;BME280;55834;50.870;4.606;2023-04-03T07:04:05;102323.13;;;2.20;53.30
68822;BME280;55834;50.870;4.606;2023-04-03T07:06:31;102339.41;;;1.86;55.14
68822;BME280;55834;50.870;4.606;2023-04-03T07:08:58;102329.72;;;2.36;55.12
68822;BME280;55834;50.870;4.606;2023-04-03T07:11:24;102334.28;;;2.15;55.04
68822;BME280;55834;50.870;4.606;2023-04-03T07:13:49;102327.66;;;2.55;55.52
68822;BME280;55834;50.870;4.606;2023-04-03T07:16:15;102325.66;;;2.46;54.57
68822;BME280;55834;50.870;4.606;2023-04-03T07:18:40;102324.53;;;3.25;54.75
68822;BME280;55834;50.870;4.606;2023-04-03T07:21:07;102329.44;;;3.16;52.85
68822;BME280;55834;50.870;4.606;2023-04-03T07:23:32;102330.47;;;3.86;52.79
68822;BME280;55834;50.870;4.606;2023-04-03T07:25:58;102336.00;;;4.36;50.79
68822;BME280;55834;50.870;4.606;2023-04-03T07:28:23;102337.44;;;3.87;49.71
68822;BME280;55834;50.870;4.606;2023-04-03T07:31:10;102337.81;;;4.02;50.67
68822;BME280;55834;50.870;4.606;2023-04-03T07:33:39;102344.13;;;4.48;50.63
68822;BME280;55834;50.870;4.606;2023-04-03T07:36:05;102335.94;;;5.13;49.10
68822;BME280;55834;50.870;4.606;2023-04-03T07:38:32;102338.25;;;5.01;47.45
68822;BME280;55834;50.870;4.606;2023-04-03T07:40:57;102361.34;;;2.47;53.72
68822;BME280;55834;50.870;4.606;2023-04-03T07:43:43;102353.72;;;2.82;51.82
68822;BME280;55834;50.870;4.606;2023-04-03T07:46:10;102353.97;;;4.21;51.99
68822;BME280;55834;50.870;4.606;2023-04-03T07:48:35;102351.94;;;4.47;49.94
68822;BME280;55834;50.870;4.606;2023-04-03T07:51:02;102351.22;;;4.16;49.99
68822;BME280;55834;50.870;4.606;2023-04-03T07:53:29;102356.19;;;4.42;50.51
68822;BME280;55834;50.870;4.606;2023-04-03T07:55:56;102359.06;;;4.54;48.18
68822;BME280;55834;50.870;4.606;2023-04-03T07:58:22;102355.63;;;4.55;48.17
68822;BME280;55834;50.870;4.606;2023-04-03T08:00:48;102351.94;;;5.27;47.64
68822;BME280;55834;50.870;4.606;2023-04-03T08:03:14;102349.41;;;4.91;47.68
68822;BME280;55834;50.870;4.606;2023-04-03T08:05:42;102368.59;;;2.86;51.66
68822;BME280;55834;50.870;4.606;2023-04-03T08:08:09;102369.50;;;3.80;50.57
68822;BME280;55834;50.870;4.606;2023-04-03T08:10:34;102370.13;;;4.41;49.75
68822;BME280;55834;50.870;4.606;2023-04-03T08:13:01;102358.41;;;3.90;49.13
68822;BME280;55834;50.870;4.606;2023-04-03T08:15:26;102360.41;;;4.37;49.46
68822;BME280;55834;50.870;4.606;2023-04-03T08:17:53;102354.41;;;5.21;49.15
68822;BME280;55834;50.870;4.606;2023-04-03T08:20:18;102366.22;;;3.24;51.97
68822;BME280;55834;50.870;4.606;2023-04-03T08:22:43;102355.22;;;4.78;48.89
68822;BME280;55834;50.870;4.606;2023-04-03T08:25:09;102356.25;;;5.27;46.74
68822;BME280;55834;50.870;4.606;2023-04-03T08:27:34;102359.00;;;5.33;46.32
68822;BME280;55834;50.870;4.606;2023-04-03T08:30:00;102360.81;;;4.53;47.02
68822;BME280;55834;50.870;4.606;2023-04-03T08:32:28;102370.03;;;4.38;47.63
68822;BME280;55834;50.870;4.606;2023-04-03T08:34:54;102358.50;;;4.69;47.05
68822;BME280;55834;50.870;4.606;2023-04-03T08:37:19;102358.69;;;5.63;47.93
68822;BME280;55834;50.870;4.606;2023-04-03T08:39:45;102363.56;;;5.01;45.30
68822;BME280;55834;50.870;4.606;2023-04-03T08:45:12;102356.31;;;5.77;44.25
68822;BME280;55834;50.870;4.606;2023-04-03T08:47:45;102372.00;;;5.28;44.45
68822;BME280;55834;50.870;4.606;2023-04-03T08:50:15;102369.13;;;5.60;45.28
68822;BME280;55834;50.870;4.606;2023-04-03T09:00:32;102360.06;;;5.00;45.63
68822;BME280;55834;50.870;4.606;2023-04-03T09:02:59;102358.47;;;5.07;46.52
68822;BME280;55834;50.870;4.606;2023-04-03T09:08:18;102351.13;;;5.80;44.99
68822;BME280;55834;50.870;4.606;2023-04-03T09:10:47;102350.56;;;6.57;42.27
68822;BME280;55834;50.870;4.606;2023-04-03T09:15:50;102343.84;;;6.15;43.77
68822;BME280;55834;50.870;4.606;2023-04-03T09:18:30;102346.63;;;6.26;43.44
68822;BME280;55834;50.870;4.606;2023-04-03T09:21:19;102349.09;;;6.15;44.70
68822;BME280;55834;50.870;4.606;2023-04-03T09:23:48;102334.41;;;6.87;41.81
68822;BME280;55834;50.870;4.606;2023-04-03T09:26:31;102355.31;;;5.22;42.06
68822;BME280;55834;50.870;4.606;2023-04-03T09:29:04;102353.97;;;5.43;42.26
68822;BME280;55834;50.870;4.606;2023-04-03T09:31:38;102352.94;;;5.82;42.86
68822;BME280;55834;50.870;4.606;2023-04-03T09:34:32;102343.41;;;6.44;41.65
68822;BME280;55834;50.870;4.606;2023-04-03T09:36:59;102350.69;;;6.07;43.58
68822;BME280;55834;50.870;4.606;2023-04-03T09:39:31;102341.78;;;5.46;41.88
68822;BME280;55834;50.870;4.606;2023-04-03T09:42:19;102345.94;;;5.83;42.11
68822;BME280;55834;50.870;4.606;2023-04-03T09:44:54;102348.66;;;5.40;42.60
68822;BME280;55834;50.870;4.606;2023-04-03T09:47:30;102346.91;;;4.97;42.16
68822;BME280;55834;50.870;4.606;2023-04-03T09:52:43;102336.56;;;5.02;42.93
68822;BME280;55834;50.870;4.606;2023-04-03T09:55:20;102327.91;;;5.51;43.68
68822;BME280;55834;50.870;4.606;2023-04-03T09:57:52;102322.50;;;4.56;44.93
68822;BME280;55834;50.870;4.606;2023-04-03T10:00:27;102322.53;;;4.99;45.01
68822;BME280;55834;50.870;4.606;2023-04-03T10:02:57;102331.47;;;4.67;42.99
68822;BME280;55834;50.870;4.606;2023-04-03T10:10:43;102316.56;;;6.04;41.82
68822;BME280;55834;50.870;4.606;2023-04-03T10:13:19;102299.75;;;6.50;43.71
68822;BME280;55834;50.870;4.606;2023-04-03T10:15:51;102295.81;;;6.18;41.81
68822;BME280;55834;50.870;4.606;2023-04-03T10:24:18;102288.19;;;6.36;39.80
68822;BME280;55834;50.870;4.606;2023-04-03T10:34:40;102303.00;;;6.34;40.74
68822;BME280;55834;50.870;4.606;2023-04-03T10:37:22;102296.69;;;6.20;38.60
68822;BME280;55834;50.870;4.606;2023-04-03T10:40:20;102286.81;;;6.64;38.92
68822;BME280;55834;50.870;4.606;2023-04-03T10:45:55;102288.44;;;5.40;41.04
68822;BME280;55834;50.870;4.606;2023-04-03T10:49:10;102293.09;;;6.13;38.00
68822;BME280;55834;50.870;4.606;2023-04-03T10:51:41;102291.06;;;4.98;36.47
68822;BME280;55834;50.870;4.606;2023-04-03T10:54:13;102289.00;;;4.39;39.52
68822;BME280;55834;50.870;4.606;2023-04-03T10:56:47;102284.00;;;5.89;39.68
68822;BME280;55834;50.870;4.606;2023-04-03T10:59:18;102274.63;;;6.66;37.14
68822;BME280;55834;50.870;4.606;2023-04-03T11:01:56;102265.78;;;7.39;38.29
68822;BME280;55834;50.870;4.606;2023-04-03T11:04:27;102258.34;;;7.96;35.77
68822;BME280;55834;50.870;4.606;2023-04-03T11:07:03;102267.22;;;8.05;35.93
68822;BME280;55834;50.870;4.606;2023-04-03T11:09:35;102257.94;;;7.43;35.07
68822;BME280;55834;50.870;4.606;2023-04-03T11:12:14;102260.84;;;6.19;35.85
68822;BME280;55834;50.870;4.606;2023-04-03T11:14:42;102258.09;;;6.72;37.03
68822;BME280;55834;50.870;4.606;2023-04-03T11:22:30;102252.09;;;7.77;36.63
68822;BME280;55834;50.870;4.606;2023-04-03T11:25:09;102250.72;;;8.34;35.27
68822;BME280;55834;50.870;4.606;2023-04-03T11:27:48;102247.16;;;8.20;34.78
68822;BME280;55834;50.870;4.606;2023-04-03T11:30:25;102241.44;;;7.60;35.30
68822;BME280;55834;50.870;4.606;2023-04-03T11:35:23;102248.66;;;6.89;35.59
68822;BME280;55834;50.870;4.606;2023-04-03T11:37:50;102235.88;;;7.26;33.57
68822;BME280;55834;50.870;4.606;2023-04-03T12:21:15;102194.38;;;7.97;28.53
68822;BME280;55834;50.870;4.606;2023-04-03T12:27:34;102206.56;;;7.87;30.45
68822;BME280;55834;50.870;4.606;2023-04-03T12:29:43;102194.47;;;8.12;28.99
68822;BME280;55834;50.870;4.606;2023-04-03T12:32:36;102196.06;;;7.90;29.62
68822;BME280;55834;50.870;4.606;2023-04-03T12:45:44;102204.56;;;7.48;28.97
68822;BME280;55834;50.870;4.606;2023-04-03T12:48:24;102174.41;;;8.39;29.43
68822;BME280;55834;50.870;4.606;2023-04-03T12:50:51;102199.28;;;7.48;27.96
68822;BME280;55834;50.870;4.606;2023-04-03T12:53:19;102189.50;;;7.28;28.73
68822;BME280;55834;50.870;4.606;2023-04-03T12:55:47;102193.06;;;7.38;28.27
68822;BME280;55834;50.870;4.606;2023-04-03T13:00:46;102175.91;;;7.92;29.89
68822;BME280;55834;50.870;4.606;2023-04-03T13:03:24;102169.84;;;8.02;27.08
68822;BME280;55834;50.870;4.606;2023-04-03T13:05:53;102183.56;;;7.55;25.98
68822;BME280;55834;50.870;4.606;2023-04-03T13:08:20;102169.25;;;7.16;27.07
68822;BME280;55834;50.870;4.606;2023-04-03T13:10:56;102189.31;;;6.29;28.21
68822;BME280;55834;50.870;4.606;2023-04-03T13:13:23;102172.69;;;7.09;29.75
68822;BME280;55834;50.870;4.606;2023-04-03T13:15:49;102160.94;;;7.79;28.70
68822;BME280;55834;50.870;4.606;2023-04-03T13:18:35;102181.16;;;6.79;29.66
68822;BME280;55834;50.870;4.606;2023-04-03T13:21:24;102173.94;;;6.61;29.23
68822;BME280;55834;50.870;4.606;2023-04-03T13:23:52;102177.97;;;6.33;28.20
68822;BME280;55834;50.870;4.606;2023-04-03T13:26:21;102176.28;;;7.20;29.41
68822;BME280;55834;50.870;4.606;2023-04-03T13:28:48;102169.72;;;7.79;29.20
68822;BME280;55834;50.870;4.606;2023-04-03T13:36:38;102158.72;;;8.77;30.05
68822;BME280;55834;50.870;4.606;2023-04-03T13:41:41;102163.53;;;7.68;28.98
68822;BME280;55834;50.870;4.606;2023-04-03T13:51:56;102147.31;;;8.70;28.72
68822;BME280;55834;50.870;4.606;2023-04-03T13:54:28;102144.69;;;8.81;29.72
68822;BME280;55834;50.870;4.606;2023-04-03T13:56:56;102150.00;;;7.16;28.66
68822;BME280;55834;50.870;4.606;2023-04-03T13:59:23;102132.63;;;7.38;30.62
68822;BME280;55834;50.870;4.606;2023-04-03T14:01:51;102130.56;;;8.41;30.05
68822;BME280;55834;50.870;4.606;2023-04-03T14:04:20;102131.06;;;7.66;29.35
68822;BME280;55834;50.870;4.606;2023-04-03T14:06:47;102117.75;;;7.37;27.46
68822;BME280;55834;50.870;4.606;2023-04-03T14:09:13;102115.44;;;7.95;29.19
68822;BME280;55834;50.870;4.606;2023-04-03T14:11:39;102130.31;;;6.71;30.32
68822;BME280;55834;50.870;4.606;2023-04-03T14:14:12;102125.78;;;6.59;29.85
68822;BME280;55834;50.870;4.606;2023-04-03T14:16:41;102110.03;;;7.66;29.83
68822;BME280;55834;50.870;4.606;2023-04-03T14:19:16;102115.00;;;7.20;30.40
68822;BME280;55834;50.870;4.606;2023-04-03T14:21:42;102107.66;;;8.10;28.71
68822;BME280;55834;50.870;4.606;2023-04-03T14:24:07;102104.84;;;7.78;28.56
68822;BME280;55834;50.870;4.606;2023-04-03T14:26:33;102112.16;;;8.53;27.00
68822;BME280;55834;50.870;4.606;2023-04-03T14:28:59;102098.72;;;7.78;26.71
68822;BME280;55834;50.870;4.606;2023-04-03T14:31:24;102101.66;;;8.62;29.72
68822;BME280;55834;50.870;4.606;2023-04-03T14:33:50;102092.88;;;9.14;28.08
68822;BME280;55834;50.870;4.606;2023-04-03T14:36:27;102087.63;;;9.41;25.66
68822;BME280;55834;50.870;4.606;2023-04-03T14:38:53;102100.72;;;8.35;27.51
68822;BME280;55834;50.870;4.606;2023-04-03T14:41:23;102087.59;;;9.27;29.02
68822;BME280;55834;50.870;4.606;2023-04-03T14:43:49;102091.03;;;9.74;27.97
68822;BME280;55834;50.870;4.606;2023-04-03T14:46:20;102083.13;;;9.76;27.55
68822;BME280;55834;50.870;4.606;2023-04-03T14:48:47;102109.88;;;7.37;27.76
68822;BME280;55834;50.870;4.606;2023-04-03T14:51:13;102091.91;;;8.17;28.98
68822;BME280;55834;50.870;4.606;2023-04-03T14:53:39;102093.50;;;7.88;27.68
68822;BME280;55834;50.870;4.606;2023-04-03T14:56:26;102084.72;;;7.86;29.16
68822;BME280;55834;50.870;4.606;2023-04-03T14:58:57;102090.25;;;8.60;26.76
68822;BME280;55834;50.870;4.606;2023-04-03T15:01:24;102093.41;;;7.68;30.35
68822;BME280;55834;50.870;4.606;2023-04-03T15:03:49;102083.22;;;8.79;28.91
68822;BME280;55834;50.870;4.606;2023-04-03T15:06:15;102092.88;;;8.62;27.01
68822;BME280;55834;50.870;4.606;2023-04-03T15:08:41;102089.16;;;6.65;28.93
68822;BME280;55834;50.870;4.606;2023-04-03T15:11:08;102076.09;;;8.09;31.63
68822;BME280;55834;50.870;4.606;2023-04-03T15:13:34;102080.59;;;8.54;30.81